createdAt,value
2023-03-01T00:02:05.561Z,9.77
2023-03-01T00:05:08.542Z,10.00
2023-03-01T00:08:10.131Z,10.52
2023-03-01T00:11:19.510Z,9.88
2023-03-01T00:14:21.108Z,10.18
2023-03-01T00:17:22.703Z,10.10
2023-03-01T00:20:24.864Z,10.07
2023-03-01T00:23:27.436Z,9.68
2023-03-01T00:26:29.650Z,10.10
2023-03-01T00:29:31.472Z,9.70
2023-03-01T00:32:33.157Z,9.77
2023-03-01T00:35:35.144Z,9.40
2023-03-01T00:38:38.288Z,10.45
2023-03-01T00:41:41.192Z,9.68
2023-03-01T00:44:43.019Z,10.45
2023-03-01T00:47:45.036Z,10.70
2023-03-01T00:50:46.626Z,10.90
2023-03-01T00:53:50.928Z,10.77
2023-03-01T00:56:52.568Z,10.57
2023-03-01T00:59:54.336Z,11.32
2023-03-01T01:02:55.998Z,10.05
2023-03-01T01:05:57.649Z,10.63
2023-03-01T01:08:59.902Z,10.65
2023-03-01T01:12:01.578Z,11.15
2023-03-01T01:15:03.420Z,10.23
2023-03-01T01:18:05.037Z,9.68
2023-03-01T01:21:09.630Z,9.53
2023-03-01T01:24:11.882Z,8.43
2023-03-01T01:27:13.525Z,8.48
2023-03-01T01:30:15.144Z,7.40
2023-03-01T01:33:16.728Z,8.13
2023-03-01T01:36:18.400Z,7.37
2023-03-01T01:39:20.092Z,8.07
2023-03-01T01:42:21.680Z,8.40
2023-03-01T01:45:37.643Z,7.82
2023-03-01T01:48:56.327Z,8.02
2023-03-01T01:52:10.609Z,8.23
2023-03-01T01:55:16.896Z,7.82
2023-03-01T01:58:21.256Z,7.60
2023-03-01T02:01:22.994Z,7.75
2023-03-01T02:04:24.642Z,6.97
2023-03-01T02:07:27.435Z,6.70
2023-03-01T02:10:30.298Z,6.60
2023-03-01T02:13:33.298Z,6.95
2023-03-01T02:16:35.353Z,6.82
2023-03-01T02:19:44.185Z,7.05
2023-03-01T02:22:47.706Z,6.57
2023-03-01T02:26:01.559Z,6.47
2023-03-01T02:29:03.821Z,6.88
2023-03-01T02:32:06.544Z,6.85
2023-03-01T02:35:12.859Z,6.68
2023-03-01T02:38:14.672Z,6.37
2023-03-01T02:41:18.516Z,6.50
2023-03-01T02:44:21.373Z,6.60
2023-03-01T02:47:23.122Z,6.47
2023-03-01T02:50:30.422Z,6.70
2023-03-01T02:53:46.623Z,6.67
2023-03-01T02:56:49.897Z,6.68
2023-03-01T02:59:53.582Z,6.55
2023-03-01T03:02:57.860Z,6.53
2023-03-01T03:05:59.489Z,6.75
2023-03-01T03:09:01.254Z,6.47
2023-03-01T03:12:02.918Z,6.80
2023-03-01T03:15:09.765Z,6.53
2023-03-01T03:18:17.867Z,6.43
2023-03-01T03:21:19.607Z,6.25
2023-03-01T03:24:22.091Z,6.37
2023-03-01T03:27:23.729Z,5.72
2023-03-01T03:30:28.660Z,7.18
2023-03-01T03:33:34.114Z,6.43
2023-03-01T03:36:35.755Z,7.00
2023-03-01T03:39:37.405Z,5.90
2023-03-01T03:42:38.983Z,8.23
2023-03-01T03:45:41.166Z,7.35
2023-03-01T03:48:45.294Z,8.65
2023-03-01T03:51:47.580Z,7.53
2023-03-01T03:54:49.175Z,7.33
2023-03-01T03:57:55.004Z,7.45
2023-03-01T04:00:58.057Z,6.60
2023-03-01T04:04:05.110Z,6.30
2023-03-01T04:07:06.822Z,6.65
2023-03-01T04:10:16.188Z,6.57
2023-03-01T04:13:22.889Z,6.05
2023-03-01T04:16:25.615Z,6.78
2023-03-01T04:19:28.166Z,6.65
2023-03-01T04:22:30.594Z,6.28
2023-03-01T04:25:32.210Z,6.10
2023-03-01T04:28:37.137Z,6.35
2023-03-01T04:31:38.818Z,6.75
2023-03-01T04:34:40.553Z,6.50
2023-03-01T04:37:42.736Z,7.13
2023-03-01T04:40:44.347Z,6.90
2023-03-01T04:43:46.117Z,7.13
2023-03-01T04:46:51.078Z,7.30
2023-03-01T04:49:52.715Z,7.50
2023-03-01T04:52:54.626Z,7.60
2023-03-01T04:55:57.046Z,7.80
2023-03-01T04:58:58.641Z,7.70
2023-03-01T05:02:01.457Z,7.65
2023-03-01T05:05:03.232Z,8.43
2023-03-01T05:08:07.189Z,7.68
2023-03-01T05:11:09.952Z,6.90
2023-03-01T05:14:12.408Z,7.65
2023-03-01T05:17:14.095Z,7.57
2023-03-01T05:20:15.990Z,7.53
2023-03-01T05:23:17.641Z,7.80
2023-03-01T05:26:28.366Z,7.77
2023-03-01T05:29:32.350Z,7.85
2023-03-01T05:32:34.002Z,7.65
2023-03-01T05:35:35.616Z,8.23
2023-03-01T05:38:37.807Z,8.18
2023-03-01T05:41:39.580Z,7.50
2023-03-01T05:44:41.450Z,8.50
2023-03-01T05:47:45.048Z,8.00
2023-03-01T05:50:48.212Z,7.97
2023-03-01T05:53:49.832Z,7.38
2023-03-01T05:56:51.455Z,7.67
2023-03-01T05:59:53.064Z,7.30
2023-03-01T06:02:56.377Z,7.57
2023-03-01T06:05:59.152Z,7.13
2023-03-01T06:09:00.855Z,7.38
2023-03-01T06:12:02.512Z,7.93
2023-03-01T06:15:05.615Z,7.65
2023-03-01T06:18:07.248Z,7.75
2023-03-01T06:21:09.724Z,7.05
2023-03-01T06:24:11.384Z,13.05
2023-03-01T06:27:13.023Z,8.23
2023-03-01T06:30:18.240Z,7.20
2023-03-01T06:33:25.345Z,7.55
2023-03-01T06:36:27.049Z,7.13
2023-03-01T06:39:29.159Z,7.72
2023-03-01T06:42:30.822Z,6.73
2023-03-01T06:45:32.429Z,7.35
2023-03-01T06:48:35.047Z,6.63
2023-03-01T06:51:39.510Z,6.85
2023-03-01T06:54:41.091Z,7.40
2023-03-01T06:57:42.751Z,6.73
2023-03-01T07:00:45.310Z,7.05
2023-03-01T07:03:47.250Z,8.07
2023-03-01T07:06:55.290Z,10.13
2023-03-01T07:09:56.892Z,7.40
2023-03-01T07:12:59.653Z,7.50
2023-03-01T07:16:01.286Z,8.48
2023-03-01T07:19:03.063Z,7.55
2023-03-01T07:22:05.431Z,7.55
2023-03-01T07:25:07.350Z,6.50
2023-03-01T07:28:09.252Z,6.97
2023-03-01T07:31:10.977Z,7.30
2023-03-01T07:34:12.796Z,8.18
2023-03-01T07:37:14.435Z,7.70
2023-03-01T07:40:16.468Z,7.03
2023-03-01T07:43:18.075Z,7.10
2023-03-01T07:46:20.281Z,7.68
2023-03-01T07:49:22.055Z,7.78
2023-03-01T07:52:24.695Z,8.55
2023-03-01T07:55:26.688Z,7.82
2023-03-01T07:58:28.283Z,8.33
2023-03-01T08:01:30.351Z,7.05
2023-03-01T08:04:34.037Z,7.80
2023-03-01T08:07:35.887Z,7.10
2023-03-01T08:10:37.574Z,6.80
2023-03-01T08:13:39.526Z,8.03
2023-03-01T08:16:42.194Z,6.63
2023-03-01T08:19:44.234Z,6.70
2023-03-01T08:22:45.861Z,6.75
2023-03-01T08:25:47.648Z,6.57
2023-03-01T08:28:50.526Z,5.53
2023-03-01T08:31:52.489Z,5.20
2023-03-01T08:34:54.170Z,5.60
2023-03-01T08:37:55.793Z,5.10
2023-03-01T08:41:00.837Z,5.40
2023-03-01T08:44:03.660Z,5.10
2023-03-01T08:47:06.400Z,4.65
2023-03-01T08:50:08.664Z,4.85
2023-03-01T08:53:10.442Z,4.85
2023-03-01T08:56:12.267Z,4.82
2023-03-01T08:59:15.294Z,5.10
2023-03-01T09:02:19.167Z,5.40
2023-03-01T09:05:20.927Z,5.47
2023-03-01T09:08:22.578Z,6.13
2023-03-01T09:11:24.256Z,5.60
2023-03-01T09:14:26.075Z,5.50
2023-03-01T09:17:27.728Z,6.03
2023-03-01T09:20:29.540Z,5.22
2023-03-01T09:23:31.200Z,4.80
2023-03-01T09:26:33.256Z,5.32
2023-03-01T09:29:38.921Z,5.47
2023-03-01T09:32:43.646Z,5.53
2023-03-01T09:35:47.055Z,5.85
2023-03-01T09:38:49.505Z,6.15
2023-03-01T09:42:04.174Z,5.93
2023-03-01T09:45:12.906Z,5.83
2023-03-01T09:48:19.764Z,6.10
2023-03-01T09:51:35.793Z,7.00
2023-03-01T09:54:37.579Z,7.30
2023-03-01T09:57:57.018Z,6.75
2023-03-01T10:01:03.686Z,7.10
2023-03-01T10:04:23.630Z,7.10
2023-03-01T10:07:43.896Z,7.75
2023-03-01T10:10:48.558Z,7.60
2023-03-01T10:14:00.269Z,7.78
2023-03-01T10:17:07.007Z,7.40
2023-03-01T10:20:23.175Z,7.60
2023-03-01T10:23:25.952Z,6.55
2023-03-01T10:26:36.654Z,7.40
2023-03-01T10:29:57.319Z,7.35
2023-03-01T10:32:59.717Z,7.20
2023-03-01T10:36:01.413Z,7.68
2023-03-01T10:39:13.233Z,7.30
2023-03-01T10:42:26.895Z,7.07
2023-03-01T10:45:39.152Z,7.93
2023-03-01T10:48:40.849Z,7.10
2023-03-01T10:51:47.528Z,7.30
2023-03-01T10:55:01.160Z,6.47
2023-03-01T10:58:23.338Z,7.07
2023-03-01T11:01:36.471Z,7.00
2023-03-01T11:04:38.611Z,7.17
2023-03-01T11:07:50.988Z,6.35
2023-03-01T11:11:14.128Z,7.32
2023-03-01T11:14:26.848Z,7.68
2023-03-01T11:17:36.657Z,7.75
2023-03-01T11:20:41.163Z,8.00
2023-03-01T11:23:45.289Z,7.63
2023-03-01T11:26:54.009Z,7.15
2023-03-01T11:30:05.771Z,7.35
2023-03-01T11:33:25.633Z,8.20
2023-03-01T11:36:43.398Z,7.53
2023-03-01T11:39:52.995Z,7.70
2023-03-01T11:43:17.428Z,8.00
2023-03-01T11:46:22.192Z,7.88
2023-03-01T11:50:08.732Z,8.68
2023-03-01T11:53:13.158Z,7.63
2023-03-01T11:56:35.927Z,7.80
2023-03-01T11:59:51.939Z,7.38
2023-03-01T12:03:19.117Z,7.57
2023-03-01T12:06:42.429Z,7.70
2023-03-01T12:10:09.349Z,6.97
2023-03-01T12:13:25.993Z,7.20
2023-03-01T12:16:38.461Z,6.90
2023-03-01T12:19:44.191Z,7.20
2023-03-01T12:23:19.981Z,6.90
2023-03-01T12:27:07.112Z,6.73
2023-03-01T12:30:26.820Z,6.72
2023-03-01T12:33:44.084Z,6.70
2023-03-01T12:36:58.470Z,7.10
2023-03-01T12:40:35.690Z,6.47
2023-03-01T12:43:55.675Z,6.70
2023-03-01T12:47:12.502Z,6.80
2023-03-01T12:50:20.961Z,6.70
2023-03-01T12:53:36.995Z,6.40
2023-03-01T12:56:39.344Z,6.15
2023-03-01T12:59:49.435Z,6.27
2023-03-01T13:03:19.012Z,6.57
2023-03-01T13:06:42.520Z,6.13
2023-03-01T13:10:16.740Z,5.70
2023-03-01T13:13:24.993Z,5.60
2023-03-01T13:16:30.222Z,5.97
2023-03-01T13:19:36.856Z,5.47
2023-03-01T13:22:49.802Z,5.38
2023-03-01T13:26:08.792Z,5.30
2023-03-01T13:29:27.128Z,5.38
2023-03-01T13:32:46.601Z,4.87
2023-03-01T13:35:48.444Z,4.93
2023-03-01T13:38:59.248Z,4.95
2023-03-01T13:42:01.655Z,5.25
2023-03-01T13:45:03.839Z,5.05
2023-03-01T13:48:30.080Z,5.00
2023-03-01T13:51:31.905Z,5.28
2023-03-01T13:54:34.447Z,4.80
2023-03-01T13:57:37.867Z,4.90
2023-03-01T14:00:40.973Z,5.00
2023-03-01T14:03:43.469Z,5.07
2023-03-01T14:06:45.395Z,4.72
2023-03-01T14:09:52.131Z,4.53
2023-03-01T14:13:20.354Z,4.55
2023-03-01T14:16:46.926Z,4.68
2023-03-01T14:19:49.445Z,4.20
2023-03-01T14:22:55.424Z,4.30
2023-03-01T14:25:59.130Z,4.60
2023-03-01T14:29:00.793Z,4.10
2023-03-01T14:32:17.820Z,4.53
2023-03-01T14:35:28.772Z,4.90
2023-03-01T14:38:48.894Z,4.50
2023-03-01T14:41:52.120Z,4.53
2023-03-01T14:44:56.163Z,4.72
2023-03-01T14:48:02.943Z,4.47
2023-03-01T14:51:06.423Z,4.50
2023-03-01T14:54:33.043Z,4.40
2023-03-01T14:57:34.773Z,4.28
2023-03-01T15:00:37.156Z,4.25
2023-03-01T15:03:44.755Z,4.40
2023-03-01T15:06:47.358Z,4.90
2023-03-01T15:09:49.261Z,4.95
2023-03-01T15:12:51.239Z,5.00
2023-03-01T15:16:02.190Z,4.30
2023-03-01T15:19:06.946Z,5.50
2023-03-01T15:22:16.849Z,4.63
2023-03-01T15:25:21.350Z,4.63
2023-03-01T15:28:35.038Z,4.40
2023-03-01T15:31:39.642Z,5.15
2023-03-01T15:34:41.360Z,5.57
2023-03-01T15:37:50.342Z,4.67
2023-03-01T15:40:52.877Z,4.80
2023-03-01T15:43:56.543Z,4.50
2023-03-01T15:46:58.769Z,4.40
2023-03-01T15:50:02.077Z,4.50
2023-03-01T15:53:22.425Z,4.40
2023-03-01T15:56:24.067Z,4.88
2023-03-01T15:59:25.918Z,4.65
2023-03-01T16:02:27.649Z,4.60
2023-03-01T16:05:32.221Z,6.85
2023-03-01T16:08:33.870Z,6.63
2023-03-01T16:11:37.767Z,6.57
2023-03-01T16:14:39.406Z,6.57
2023-03-01T16:17:41.075Z,5.75
2023-03-01T16:20:42.764Z,5.13
2023-03-01T16:23:45.443Z,4.60
2023-03-01T16:26:47.021Z,5.50
2023-03-01T16:29:48.701Z,5.50
2023-03-01T16:32:51.130Z,5.13
2023-03-01T16:35:52.903Z,4.70
2023-03-01T16:38:55.198Z,5.00
2023-03-01T16:41:56.809Z,4.93
2023-03-01T16:44:58.886Z,5.40
2023-03-01T16:48:00.504Z,5.25
2023-03-01T16:51:02.577Z,5.43
2023-03-01T16:54:05.582Z,5.00
2023-03-01T16:57:07.309Z,5.50
2023-03-01T17:00:11.577Z,4.85
2023-03-01T17:03:14.884Z,5.82
2023-03-01T17:06:21.388Z,6.28
2023-03-01T17:09:23.153Z,9.17
2023-03-01T17:12:24.770Z,7.30
2023-03-01T17:15:26.428Z,8.70
2023-03-01T17:18:28.090Z,8.85
2023-03-01T17:21:29.859Z,9.60
2023-03-01T17:24:38.905Z,9.53
2023-03-01T17:27:41.203Z,8.98
2023-03-01T17:30:45.203Z,8.80
2023-03-01T17:33:47.133Z,10.50
2023-03-01T17:36:50.606Z,15.35
2023-03-01T17:39:52.288Z,20.87
2023-03-01T17:42:53.980Z,14.63
2023-03-01T17:45:56.444Z,12.02
2023-03-01T17:48:58.215Z,20.30
2023-03-01T17:52:00.106Z,17.63
2023-03-01T17:55:01.707Z,17.27
2023-03-01T17:58:04.477Z,15.40
2023-03-01T18:01:14.127Z,12.02
2023-03-01T18:04:15.969Z,11.43
2023-03-01T18:07:17.622Z,9.60
2023-03-01T18:10:20.180Z,10.00
2023-03-01T18:13:21.810Z,9.45
2023-03-01T18:16:24.067Z,12.85
2023-03-01T18:19:25.714Z,11.60
2023-03-01T18:22:27.432Z,12.63
2023-03-01T18:25:29.095Z,10.33
2023-03-01T18:28:31.973Z,9.98
2023-03-01T18:31:33.731Z,9.35
2023-03-01T18:34:35.443Z,8.52
2023-03-01T18:37:37.130Z,8.80
2023-03-01T18:40:40.639Z,7.90
2023-03-01T18:43:42.429Z,8.80
2023-03-01T18:46:46.403Z,8.57
2023-03-01T18:49:48.769Z,16.40
2023-03-01T18:52:50.387Z,8.60
2023-03-01T18:55:52.011Z,7.97
2023-03-01T18:58:53.625Z,7.97
2023-03-01T19:01:55.356Z,8.85
2023-03-01T19:04:56.991Z,8.30
2023-03-01T19:07:58.937Z,8.15
2023-03-01T19:11:04.143Z,8.27
2023-03-01T19:14:05.893Z,10.30
2023-03-01T19:17:07.738Z,10.88
2023-03-01T19:20:10.506Z,9.50
2023-03-01T19:23:13.602Z,9.57
2023-03-01T19:26:17.634Z,8.50
2023-03-01T19:29:19.248Z,8.43
2023-03-01T19:32:20.903Z,10.07
2023-03-01T19:35:23.522Z,9.00
2023-03-01T19:38:26.070Z,14.95
2023-03-01T19:41:27.727Z,15.03
2023-03-01T19:44:29.468Z,11.65
2023-03-01T19:47:31.087Z,10.85
2023-03-01T19:50:32.851Z,17.40
2023-03-01T19:53:34.885Z,13.20
2023-03-01T19:56:36.650Z,11.37
2023-03-01T19:59:38.372Z,12.10
2023-03-01T20:02:40.030Z,12.70
2023-03-01T20:05:43.710Z,13.68
2023-03-01T20:08:45.382Z,14.52
2023-03-01T20:11:46.990Z,15.50
2023-03-01T20:14:50.881Z,14.50
2023-03-01T20:17:52.567Z,13.30
2023-03-01T20:20:54.494Z,13.70
2023-03-01T20:23:56.222Z,13.18
2023-03-01T20:26:58.822Z,8.83
2023-03-01T20:30:00.518Z,10.13
2023-03-01T20:33:02.126Z,14.73
2023-03-01T20:36:04.860Z,14.30
2023-03-01T20:39:07.041Z,15.10
2023-03-01T20:42:08.761Z,14.83
2023-03-01T20:45:10.937Z,15.85
2023-03-01T20:48:14.059Z,15.45
2023-03-01T20:51:15.733Z,14.32
2023-03-01T20:54:17.427Z,13.07
2023-03-01T20:57:19.001Z,14.43
2023-03-01T21:00:20.923Z,14.27
2023-03-01T21:03:22.520Z,14.80
2023-03-01T21:06:24.133Z,13.00
2023-03-01T21:09:25.776Z,13.38
2023-03-01T21:12:27.361Z,11.87
2023-03-01T21:15:29.773Z,12.10
2023-03-01T21:18:32.584Z,12.73
2023-03-01T21:21:34.428Z,14.23
2023-03-01T21:24:36.145Z,13.55
2023-03-01T21:27:38.682Z,12.33
2023-03-01T21:30:40.378Z,11.95
2023-03-01T21:33:47.265Z,11.57
2023-03-01T21:36:48.917Z,12.07
2023-03-01T21:39:50.576Z,11.70
2023-03-01T21:42:52.253Z,11.13
2023-03-01T21:45:53.876Z,11.88
2023-03-01T21:48:56.097Z,12.48
2023-03-01T21:51:57.752Z,12.30
2023-03-01T21:55:02.000Z,13.40
2023-03-01T21:58:03.755Z,10.67
2023-03-01T22:01:11.065Z,9.93
2023-03-01T22:04:14.722Z,10.02
2023-03-01T22:07:16.318Z,9.68
2023-03-01T22:10:26.874Z,9.75
2023-03-01T22:13:28.536Z,9.10
2023-03-01T22:16:32.567Z,9.00
2023-03-01T22:19:34.427Z,9.45
2023-03-01T22:22:35.999Z,10.30
2023-03-01T22:25:42.444Z,11.60
2023-03-01T22:28:45.549Z,11.67
2023-03-01T22:31:47.432Z,12.23
2023-03-01T22:34:49.161Z,11.35
2023-03-01T22:37:50.917Z,12.68
2023-03-01T22:41:00.913Z,11.52
2023-03-01T22:44:02.768Z,9.47
2023-03-01T22:47:04.520Z,9.02
2023-03-01T22:50:08.200Z,8.13
2023-03-01T22:53:09.792Z,8.13
2023-03-01T22:56:23.145Z,8.45
2023-03-01T22:59:24.741Z,7.80
2023-03-01T23:02:26.520Z,8.25
2023-03-01T23:05:28.382Z,8.23
2023-03-01T23:08:29.991Z,7.25
2023-03-01T23:11:32.654Z,7.97
2023-03-01T23:14:34.488Z,7.80
2023-03-01T23:17:36.577Z,7.28
2023-03-01T23:20:38.169Z,8.00
2023-03-01T23:23:40.418Z,7.55
2023-03-01T23:26:42.126Z,8.27
2023-03-01T23:29:44.876Z,7.93
2023-03-01T23:32:46.439Z,7.10
2023-03-01T23:35:48.190Z,8.77
2023-03-01T23:38:52.779Z,10.25
2023-03-01T23:41:54.386Z,11.27
2023-03-01T23:44:55.983Z,10.07
2023-03-01T23:47:57.956Z,11.57
2023-03-01T23:51:05.074Z,12.68
2023-03-01T23:54:07.360Z,12.15
2023-03-01T23:57:09.009Z,13.05
